EST,Max TemperatureF,Mean TemperatureF,Min TemperatureF,Max Dew PointF,MeanDew PointF,Min DewpointF,Max Humidity, Mean Humidity, Min Humidity, Max Sea Level PressureIn, Mean Sea Level PressureIn, Min Sea Level PressureIn, Max VisibilityMiles, Mean VisibilityMiles, Min VisibilityMiles, Max Wind SpeedMPH, Mean Wind SpeedMPH, Max Gust SpeedMPH,PrecipitationIn, CloudCover, Events, WindDirDegrees
2008-1-1,32,29,24,32,28,21,100,92,75,30.13,29.93,29.64,10,3,0,18,9,24,0.00,8,Snow,303
2008-1-2,23,14,5,21,16,3,93,86,79,30.60,30.39,30.17,10,7,1,16,11,24,0.00,7,Snow,265
2008-1-3,14,7,0,12,6,-4,93,82,67,30.69,30.61,30.44,10,8,2,14,5,18,0.00,2,Snow,195
2008-1-4,30,24,19,19,16,12,80,70,59,30.41,30.31,30.19,10,10,10,17,12,23,0.00,3,,205
2008-1-5,37,34,30,36,30,19,100,85,64,30.11,30.00,29.92,10,6,1,14,9,20,0.00,7,Snow,191
2008-1-6,48,42,35,48,41,36,100,100,100,29.94,29.88,29.79,2,0,0,12,8,,0.00,8,Fog-Rain-Snow,180
2008-1-7,62,56,51,57,54,52,100,91,77,29.93,29.89,29.84,10,8,5,18,10,26,0.00,8,Rain,202
2008-1-8,57,54,50,54,52,50,100,96,82,29.89,29.73,29.56,10,8,4,18,11,28,0.00,8,Rain,185
2008-1-9,39,36,33,36,32,30,93,84,70,30.14,29.98,29.56,10,9,4,29,15,38,0.00,5,Rain,261
2008-1-10,41,36,32,37,32,28,100,89,61,30.12,29.84,29.35,10,6,2,20,6,28,0.00,3,Rain-Snow,110
2008-1-11,44,38,33,43,34,32,100,90,87,29.83,29.56,29.32,10,8,3,18,13,26,0.00,8,Rain-Snow,257
2008-1-12,37,34,30,30,28,25,93,81,70,30.07,30.00,29.90,10,9,7,10,6,,0.00,5,,187
2008-1-13,33,32,32,34,32,30,100,96,87,30.00,29.92,29.85,7,3,0,10,3,,0.00,8,Rain-Snow,182
2008-1-14,32,29,26,30,26,23,93,86,80,29.97,29.92,29.89,10,7,2,18,11,24,0.00,8,Snow,258
2008-1-15,28,26,23,27,22,19,100,84,74,30.15,30.02,29.95,10,7,2,16,11,21,0.00,7,Snow,267
2008-1-16,32,23,14,21,18,12,100,82,55,30.23,30.19,30.13,10,8,3,15,4,18,0.00,0,,165
2008-1-17,33,32,30,32,28,23,100,86,69,30.09,29.88,29.67,10,8,1,17,9,22,0.00,8,Rain-Snow,178
2008-1-18,28,22,17,25,14,5,93,61,40,30.04,29.99,29.97,10,8,1,21,11,28,0.00,4,Snow,234
2008-1-19,21,14,6,18,7,0,86,74,62,30.19,30.14,30.04,10,6,2,20,13,29,0.00,7,Snow,284
2008-1-20,10,5,0,3,-2,-6,85,71,52,30.54,30.39,30.23,10,8,3,18,10,25,0.00,5,Snow,240
2008-1-21,24,14,6,9,2,-4,79,59,43,30.65,30.54,30.30,10,9,3,10,7,16,0.00,5,Snow,191
2008-1-22,32,26,19,30,21,9,93,80,55,30.14,29.99,29.91,10,5,1,23,11,29,0.00,7,Snow,247
2008-1-23,19,14,10,12,9,3,85,78,68,30.09,30.04,30.02,10,6,2,12,7,,0.00,7,Snow,229
2008-1-24,19,16,12,14,10,3,93,76,49,30.42,30.19,29.98,10,8,1,12,5,20,0.00,7,Snow,308
2008-1-25,17,6,-4,9,-3,-11,78,62,45,30.49,30.42,30.29,10,10,4,10,7,,0.00,2,Snow,211
2008-1-26,28,24,19,28,20,16,100,86,74,30.22,30.04,29.91,10,7,2,13,7,17,0.00,8,Snow,176
2008-1-27,30,26,21,23,21,16,86,75,60,30.14,30.06,29.94,10,8,5,9,6,,0.00,6,,236
2008-1-28,41,26,10,32,23,9,100,84,57,30.11,29.92,29.64,10,6,0,21,6,29,0.00,4,Fog-Rain,177
2008-1-29,46,44,41,46,38,27,100,83,57,29.50,29.35,29.05,10,7,1,20,13,24,0.00,7,Rain,193
2008-1-30,17,12,6,14,4,1,86,75,62,30.26,29.88,29.30,10,5,1,33,19,41,0.00,6,Snow,255
2008-1-31,23,16,10,16,10,3,86,77,63,30.50,30.40,30.27,10,8,1,15,3,22,0.00,6,Snow,87